createdAt,value
2023-03-01T00:01:14.211Z,103084.03
2023-03-01T00:03:41.225Z,103076.94
2023-03-01T00:06:08.142Z,103079.75
2023-03-01T00:08:35.533Z,103069.31
2023-03-01T00:11:13.176Z,103066.03
2023-03-01T00:13:40.185Z,103060.28
2023-03-01T00:16:09.170Z,103057.28
2023-03-01T00:18:35.988Z,103059.50
2023-03-01T00:21:02.996Z,103057.31
2023-03-01T00:23:29.738Z,103059.56
2023-03-01T00:25:56.588Z,103053.00
2023-03-01T00:28:23.421Z,103059.09
2023-03-01T00:30:50.693Z,103054.72
2023-03-01T00:33:17.682Z,103052.53
2023-03-01T00:35:45.418Z,103062.16
2023-03-01T00:38:12.101Z,103056.66
2023-03-01T00:40:38.746Z,103062.16
2023-03-01T00:43:05.462Z,103059.19
2023-03-01T00:45:32.357Z,103050.41
2023-03-01T00:47:59.142Z,103050.41
2023-03-01T00:50:26.272Z,103050.97
2023-03-01T00:52:57.072Z,103050.97
2023-03-01T00:55:24.685Z,103047.66
2023-03-01T00:57:51.495Z,103051.47
2023-03-01T01:00:19.610Z,103052.56
2023-03-01T01:02:46.393Z,103059.41
2023-03-01T01:05:13.478Z,103054.72
2023-03-01T01:07:40.205Z,103051.41
2023-03-01T01:10:07.582Z,103046.97
2023-03-01T01:12:34.244Z,103050.84
2023-03-01T01:15:00.948Z,103041.75
2023-03-01T01:17:27.649Z,103042.00
2023-03-01T01:19:54.272Z,103044.75
2023-03-01T01:22:20.901Z,103033.75
2023-03-01T01:24:47.539Z,103040.06
2023-03-01T01:27:14.181Z,103045.84
2023-03-01T01:29:40.830Z,103037.59
2023-03-01T01:32:07.486Z,103056.25
2023-03-01T01:34:34.141Z,103041.44
2023-03-01T01:37:03.721Z,103045.25
2023-03-01T01:39:30.831Z,103047.19
2023-03-01T01:41:57.496Z,103043.63
2023-03-01T01:44:29.243Z,103038.13
2023-03-01T01:47:04.795Z,103034.53
2023-03-01T01:49:38.684Z,103034.25
2023-03-01T01:52:10.809Z,103030.44
2023-03-01T01:54:50.735Z,103035.94
2023-03-01T01:57:23.024Z,103025.75
2023-03-01T01:59:52.673Z,103019.97
2023-03-01T02:02:20.352Z,103018.59
2023-03-01T02:04:54.081Z,103008.69
2023-03-01T02:07:23.756Z,103004.28
2023-03-01T02:09:53.572Z,102996.00
2023-03-01T02:12:25.486Z,102997.69
2023-03-01T02:14:52.146Z,102983.94
2023-03-01T02:17:20.674Z,102974.84
2023-03-01T02:20:15.757Z,102974.56
2023-03-01T02:22:46.191Z,102969.91
2023-03-01T02:25:31.903Z,102973.50
2023-03-01T02:28:33.117Z,102956.16
2023-03-01T02:31:18.467Z,102960.81
2023-03-01T02:33:46.481Z,102964.91
2023-03-01T02:36:30.134Z,102951.72
2023-03-01T02:39:00.192Z,102950.94
2023-03-01T02:41:29.490Z,102947.91
2023-03-01T02:43:56.697Z,102950.66
2023-03-01T02:46:26.069Z,102946.22
2023-03-01T02:48:58.061Z,102953.41
2023-03-01T02:51:33.816Z,102942.41
2023-03-01T02:54:18.649Z,102939.41
2023-03-01T02:56:49.261Z,102935.81
2023-03-01T02:59:19.331Z,102934.97
2023-03-01T03:01:47.397Z,102936.66
2023-03-01T03:04:22.097Z,102924.81
2023-03-01T03:06:50.844Z,102933.06
2023-03-01T03:09:18.948Z,102920.94
2023-03-01T03:11:45.886Z,102918.19
2023-03-01T03:14:14.321Z,102931.69
2023-03-01T03:16:46.285Z,102930.88
2023-03-01T03:19:13.496Z,102928.69
2023-03-01T03:21:40.326Z,102925.09
2023-03-01T03:24:07.060Z,102926.19
2023-03-01T03:26:33.839Z,102918.19
2023-03-01T03:29:00.525Z,102923.69
2023-03-01T03:31:27.567Z,102920.94
2023-03-01T03:33:54.566Z,102915.97
2023-03-01T03:36:24.805Z,102918.16
2023-03-01T03:38:51.674Z,102904.94
2023-03-01T03:41:18.663Z,102914.28
2023-03-01T03:43:45.260Z,102905.22
2023-03-01T03:46:12.577Z,102908.78
2023-03-01T03:48:44.886Z,102912.63
2023-03-01T03:51:14.954Z,102906.28
2023-03-01T03:53:42.351Z,102913.72
2023-03-01T03:56:09.514Z,102917.28
2023-03-01T03:58:36.577Z,102914.81
2023-03-01T04:01:03.788Z,102912.31
2023-03-01T04:03:32.859Z,102905.16
2023-03-01T04:06:01.081Z,102899.91
2023-03-01T04:08:28.673Z,102909.84
2023-03-01T04:11:21.528Z,102896.91
2023-03-01T04:13:48.371Z,102896.09
2023-03-01T04:16:15.025Z,102903.78
2023-03-01T04:18:41.699Z,102896.59
2023-03-01T04:21:08.278Z,102899.34
2023-03-01T04:23:34.988Z,102896.59
2023-03-01T04:26:01.655Z,102904.84
2023-03-01T04:28:37.152Z,102897.97
2023-03-01T04:31:15.137Z,102886.97
2023-03-01T04:33:47.249Z,102894.13
2023-03-01T04:36:16.102Z,102893.31
2023-03-01T04:38:43.428Z,102886.72
2023-03-01T04:41:12.137Z,102884.78
2023-03-01T04:43:39.206Z,102877.34
2023-03-01T04:46:13.344Z,102882.84
2023-03-01T04:48:43.298Z,102880.38
2023-03-01T04:51:10.206Z,102868.56
2023-03-01T04:53:39.971Z,102873.22
2023-03-01T04:56:07.352Z,102876.25
2023-03-01T04:58:33.953Z,102873.72
2023-03-01T05:01:00.635Z,102880.34
2023-03-01T05:03:27.362Z,102876.22
2023-03-01T05:05:54.075Z,102871.78
2023-03-01T05:08:21.741Z,102867.97
2023-03-01T05:10:53.430Z,102868.19
2023-03-01T05:13:22.122Z,102860.78
2023-03-01T05:15:57.277Z,102866.28
2023-03-01T05:18:27.107Z,102865.44
2023-03-01T05:20:57.216Z,102868.19
2023-03-01T05:23:24.117Z,102862.97
2023-03-01T05:25:53.236Z,102862.16
2023-03-01T05:28:21.203Z,102862.16
2023-03-01T05:30:48.515Z,102860.22
2023-03-01T05:33:15.259Z,102851.41
2023-03-01T05:35:46.195Z,102851.41
2023-03-01T05:38:14.354Z,102856.66
2023-03-01T05:40:42.311Z,102851.97
2023-03-01T05:43:09.048Z,102847.56
2023-03-01T05:45:37.913Z,102855.81
2023-03-01T05:48:06.713Z,102858.84
2023-03-01T05:50:40.172Z,102865.16
2023-03-01T05:53:14.519Z,102869.00
2023-03-01T05:55:43.647Z,102865.69
2023-03-01T05:58:15.871Z,102865.38
2023-03-01T06:00:43.643Z,102870.56
2023-03-01T06:03:14.793Z,102874.41
2023-03-01T06:05:43.623Z,102872.75
2023-03-01T06:08:12.092Z,102879.09
2023-03-01T06:10:38.789Z,102872.75
2023-03-01T06:13:05.728Z,102867.25
2023-03-01T06:15:32.430Z,102866.41
2023-03-01T06:18:00.295Z,102874.94
2023-03-01T06:20:30.152Z,102881.28
2023-03-01T06:22:57.344Z,102889.25
2023-03-01T06:25:26.026Z,102882.38
2023-03-01T06:27:59.259Z,102870.03
2023-03-01T06:30:26.883Z,102887.09
2023-03-01T06:32:53.797Z,102887.69
2023-03-01T06:35:20.562Z,102888.25
2023-03-01T06:37:48.619Z,102885.22
2023-03-01T06:40:16.094Z,102876.16
2023-03-01T06:42:45.055Z,102885.22
2023-03-01T06:45:12.584Z,102883.31
2023-03-01T06:47:39.780Z,102880.56
2023-03-01T06:50:06.778Z,102884.97
2023-03-01T06:52:33.477Z,102871.22
2023-03-01T06:55:00.134Z,102886.63
2023-03-01T06:57:28.258Z,102873.97
2023-03-01T06:59:54.960Z,102879.47
2023-03-01T07:02:21.608Z,102863.81
2023-03-01T07:04:50.634Z,102875.88
2023-03-01T07:07:19.902Z,102870.94
2023-03-01T07:09:47.698Z,102880.03
2023-03-01T07:12:14.409Z,102884.69
2023-03-01T07:14:41.182Z,102883.88
2023-03-01T07:17:08.016Z,102886.63
2023-03-01T07:19:34.638Z,102885.81
2023-03-01T07:22:02.443Z,102884.69
2023-03-01T07:24:29.383Z,102893.50
2023-03-01T07:26:56.056Z,102889.94
2023-03-01T07:29:22.673Z,102894.09
2023-03-01T07:31:49.398Z,102898.25
2023-03-01T07:34:15.975Z,102895.50
2023-03-01T07:36:44.182Z,102898.25
2023-03-01T07:39:11.871Z,102899.88
2023-03-01T07:41:39.156Z,102887.53
2023-03-01T07:44:06.415Z,102890.03
2023-03-01T07:46:33.562Z,102890.84
2023-03-01T07:49:00.475Z,102895.53
2023-03-01T07:51:27.460Z,102889.75
2023-03-01T07:53:54.070Z,102888.66
2023-03-01T07:56:22.502Z,102896.09
2023-03-01T07:58:50.725Z,102891.66
2023-03-01T08:01:20.086Z,102891.66
2023-03-01T08:03:46.851Z,102890.03
2023-03-01T08:06:15.938Z,102887.00
2023-03-01T08:08:42.675Z,102888.91
2023-03-01T08:11:12.428Z,102890.59
2023-03-01T08:13:39.113Z,102892.25
2023-03-01T08:16:09.179Z,102890.31
2023-03-01T08:18:36.020Z,102898.31
2023-03-01T08:21:04.836Z,102907.13
2023-03-01T08:23:31.462Z,102903.81
2023-03-01T08:26:20.202Z,102901.63
2023-03-01T08:28:48.260Z,102904.38
2023-03-01T08:31:18.307Z,102907.13
2023-03-01T08:33:51.631Z,102896.13
2023-03-01T08:36:19.413Z,102899.97
2023-03-01T08:38:46.875Z,102906.03
2023-03-01T08:41:14.326Z,102898.03
2023-03-01T08:43:41.393Z,102892.28
2023-03-01T08:46:08.384Z,102905.53
2023-03-01T08:48:40.598Z,102901.13
2023-03-01T08:51:11.742Z,102897.03
2023-03-01T08:53:42.336Z,102905.59
2023-03-01T08:56:09.847Z,102893.78
2023-03-01T08:58:37.894Z,102900.44
2023-03-01T09:01:12.465Z,102898.78
2023-03-01T09:03:40.070Z,102900.72
2023-03-01T09:06:11.225Z,102903.25
2023-03-01T09:08:40.095Z,102907.13
2023-03-01T09:11:08.937Z,102919.53
2023-03-01T17:51:30.524Z,102461.44
2023-03-01T17:54:17.708Z,102462.53
2023-03-01T17:57:04.643Z,102457.56
2023-03-01T17:59:51.574Z,102457.31
2023-03-01T18:02:38.744Z,102457.06
2023-03-01T18:05:25.976Z,102458.72
2023-03-01T18:08:13.002Z,102453.47
2023-03-01T18:11:00.716Z,102456.53
2023-03-01T18:13:47.871Z,102453.25
2023-03-01T18:16:35.461Z,102455.41
2023-03-01T18:19:22.558Z,102454.88
2023-03-01T18:22:09.642Z,102453.81
2023-03-01T18:24:56.650Z,102449.94
2023-03-01T18:27:43.562Z,102459.84
2023-03-01T18:30:30.715Z,102455.97
2023-03-01T18:33:17.678Z,102451.31
2023-03-01T18:36:06.151Z,102451.56
2023-03-01T18:38:33.448Z,102459.53
2023-03-01T18:41:01.201Z,102457.91
2023-03-01T18:43:28.925Z,102463.13
2023-03-01T18:45:59.695Z,102457.59
2023-03-01T18:48:26.543Z,102452.06
2023-03-01T18:50:53.230Z,102449.59
2023-03-01T18:53:19.996Z,102455.66
2023-03-01T18:55:46.618Z,102446.53
2023-03-01T18:58:13.236Z,102450.44
2023-03-01T19:00:39.988Z,102448.22
2023-03-01T19:03:06.748Z,102432.50
2023-03-01T19:05:33.389Z,102437.19
2023-03-01T19:08:00.160Z,102434.97
2023-03-01T19:10:26.823Z,102433.34
2023-03-01T19:12:53.486Z,102436.38
2023-03-01T19:15:20.309Z,102427.84
2023-03-01T19:17:47.017Z,102422.88
2023-03-01T19:20:13.720Z,102426.16
2023-03-01T19:22:40.327Z,102426.97
2023-03-01T19:25:07.489Z,102430.56
2023-03-01T19:27:34.400Z,102420.63
2023-03-01T19:30:01.247Z,102419.56
2023-03-01T19:32:27.902Z,102423.41
2023-03-01T19:34:54.572Z,102424.53
2023-03-01T19:37:21.166Z,102427.28
2023-03-01T19:39:48.127Z,102420.94
2023-03-01T19:42:14.738Z,102419.28
2023-03-01T19:44:41.572Z,102421.78
2023-03-01T19:47:08.179Z,102421.78
2023-03-01T19:49:37.496Z,102424.22
2023-03-01T19:52:04.814Z,102422.84
2023-03-01T19:54:31.636Z,102421.75
2023-03-01T19:57:00.537Z,102417.88
2023-03-01T19:59:28.357Z,102407.41
2023-03-01T20:01:56.014Z,102414.56
2023-03-01T20:04:22.835Z,102395.78
2023-03-01T20:06:49.736Z,102406.28
2023-03-01T20:09:21.747Z,102405.47
2023-03-01T20:11:50.230Z,102392.25
2023-03-01T20:14:16.913Z,102409.34
2023-03-01T20:16:43.570Z,102395.81
2023-03-01T20:19:10.245Z,102401.34
2023-03-01T20:21:36.976Z,102410.72
2023-03-01T20:24:03.741Z,102393.38
2023-03-01T20:26:30.865Z,102389.78
2023-03-01T20:28:57.728Z,102400.50
2023-03-01T20:31:29.273Z,102395.00
2023-03-01T20:33:58.815Z,102390.31
2023-03-01T20:36:26.950Z,102390.31
2023-03-01T20:38:54.322Z,102389.50
2023-03-01T20:41:21.756Z,102393.06
2023-03-01T20:43:54.325Z,102399.41
2023-03-01T20:46:23.746Z,102380.41
2023-03-01T20:48:53.985Z,102374.91
2023-03-01T20:51:20.830Z,102374.09
2023-03-01T20:53:47.614Z,102374.91
2023-03-01T20:56:15.893Z,102379.59
2023-03-01T20:58:43.400Z,102365.53
2023-03-01T21:01:14.337Z,102374.91
2023-03-01T21:03:41.056Z,102366.91
2023-03-01T21:06:09.422Z,102376.00
2023-03-01T21:08:36.041Z,102365.81
2023-03-01T21:11:05.707Z,102356.72
2023-03-01T21:13:33.458Z,102359.19
2023-03-01T21:16:03.451Z,102356.72
2023-03-01T21:18:32.322Z,102346.81
2023-03-01T21:21:05.805Z,102349.84
2023-03-01T21:23:34.305Z,102349.59
2023-03-01T21:26:09.859Z,102352.34
2023-03-01T21:28:38.093Z,102348.22
2023-03-01T21:31:15.239Z,102345.78
2023-03-01T21:33:47.178Z,102345.25
2023-03-01T21:36:15.620Z,102343.56
2023-03-01T21:38:44.497Z,102340.81
2023-03-01T21:41:22.083Z,102330.09
2023-03-01T21:43:50.494Z,102333.13
2023-03-01T21:46:20.598Z,102339.19
2023-03-01T21:48:49.581Z,102336.19
2023-03-01T21:51:19.492Z,102333.19
2023-03-01T21:53:46.465Z,102336.75
2023-03-01T21:56:19.190Z,102342.50
2023-03-01T21:58:45.997Z,102341.41
2023-03-01T22:01:16.294Z,102344.16
2023-03-01T22:03:47.241Z,102337.00
2023-03-01T22:06:19.322Z,102334.84
2023-03-01T22:08:50.193Z,102334.28
2023-03-01T22:11:18.568Z,102340.91
2023-03-01T22:13:47.602Z,102325.78
2023-03-01T22:16:14.315Z,102330.19
2023-03-01T22:18:41.126Z,102327.19
2023-03-01T22:21:08.230Z,102334.06
2023-03-01T22:23:36.329Z,102327.75
2023-03-01T22:26:03.198Z,102327.75
2023-03-01T22:28:30.699Z,102326.09
2023-03-01T22:30:57.478Z,102323.88
2023-03-01T22:33:24.151Z,102329.09
2023-03-01T22:35:50.901Z,102332.69
2023-03-01T22:38:17.557Z,102328.28
2023-03-01T22:40:44.208Z,102329.38
2023-03-01T22:43:10.843Z,102334.06
2023-03-01T22:45:37.495Z,102340.38
2023-03-01T22:48:05.205Z,102337.09
2023-03-01T22:50:31.969Z,102329.94
2023-03-01T22:53:01.172Z,102342.06
2023-03-01T22:55:28.524Z,102343.16
2023-03-01T22:57:55.161Z,102332.16
2023-03-01T23:00:22.126Z,102327.19
2023-03-01T23:02:50.146Z,102336.00
2023-03-01T23:05:16.954Z,102329.97
2023-03-01T23:07:44.924Z,102335.47
2023-03-01T23:10:12.307Z,102331.09
2023-03-01T23:12:39.091Z,102341.53
2023-03-01T23:15:06.458Z,102324.50
2023-03-01T23:17:33.842Z,102325.03
2023-03-01T23:20:00.572Z,102319.00
2023-03-01T23:22:30.700Z,102319.00
2023-03-01T23:24:57.367Z,102314.03
2023-03-01T23:27:25.134Z,102314.84
2023-03-01T23:29:52.080Z,102307.72
2023-03-01T23:32:18.821Z,102314.03
2023-03-01T23:34:45.543Z,102309.09
2023-03-01T23:37:12.310Z,102318.47
2023-03-01T23:39:39.014Z,102304.41
2023-03-01T23:42:05.770Z,102305.81
2023-03-01T23:44:32.814Z,102316.84
2023-03-01T23:46:59.520Z,102318.22
2023-03-01T23:49:26.154Z,102306.38
2023-03-01T23:51:52.985Z,102307.22
2023-03-01T23:54:21.923Z,102307.50
2023-03-01T23:56:48.618Z,102310.25
2023-03-01T23:59:17.944Z,102303.94
